sensor_id;sensor_type;location;lat;lon;timestamp;pressure;altitude;pressure_sealevel;temperature;humidity
61434;BME280;47300;46.192;9.000;2022-12-07T00:03:46;98062.50;;;1.78;100.00
61434;BME280;47300;46.192;9.000;2022-12-07T00:06:14;98059.56;;;1.98;100.00
61434;BME280;47300;46.192;9.000;2022-12-07T00:08:40;98058.78;;;2.02;100.00
61434;BME280;47300;46.192;9.000;2022-12-07T00:11:11;98058.91;;;2.08;100.00
61434;BME280;47300;46.192;9.000;2022-12-07T00:13:37;98060.56;;;2.05;100.00
61434;BME280;47300;46.192;9.000;2022-12-07T00:16:08;98063.75;;;1.93;100.00
61434;BME280;47300;46.192;9.000;2022-12-07T00:18:34;98058.41;;;1.86;100.00
61434;BME280;47300;46.192;9.000;2022-12-07T00:21:04;98058.66;;;1.97;100.00
61434;BME280;47300;46.192;9.000;2022-12-07T00:23:30;98044.53;;;2.21;100.00
61434;BME280;47300;46.192;9.000;2022-12-07T00:25:55;98048.19;;;2.29;100.00
61434;BME280;47300;46.192;9.000;2022-12-07T00:28:21;98047.66;;;2.46;100.00
61434;BME280;47300;46.192;9.000;2022-12-07T00:30:46;98046.56;;;2.35;100.00
61434;BME280;47300;46.192;9.000;2022-12-07T00:33:11;98045.59;;;2.29;100.00
61434;BME280;47300;46.192;9.000;2022-12-07T00:35:37;98038.13;;;2.45;100.00
61434;BME280;47300;46.192;9.000;2022-12-07T00:38:02;98033.69;;;2.38;100.00
61434;BME280;47300;46.192;9.000;2022-12-07T00:40:28;98036.13;;;2.31;100.00
61434;BME280;47300;46.192;9.000;2022-12-07T00:42:53;98034.38;;;2.29;100.00
61434;BME280;47300;46.192;9.000;2022-12-07T00:45:18;98026.69;;;2.34;100.00
61434;BME280;47300;46.192;9.000;2022-12-07T00:47:44;98025.94;;;2.39;100.00
61434;BME280;47300;46.192;9.000;2022-12-07T00:50:09;98027.16;;;2.55;100.00
61434;BME280;47300;46.192;9.000;2022-12-07T00:52:34;98024.31;;;2.44;100.00
61434;BME280;47300;46.192;9.000;2022-12-07T00:54:59;98024.25;;;2.41;100.00
61434;BME280;47300;46.192;9.000;2022-12-07T00:57:25;98018.19;;;2.41;100.00
61434;BME280;47300;46.192;9.000;2022-12-07T00:59:50;98019.72;;;2.31;100.00
61434;BME280;47300;46.192;9.000;2022-12-07T01:02:20;98019.81;;;1.97;100.00
61434;BME280;47300;46.192;9.000;2022-12-07T01:04:45;98023.13;;;1.90;100.00
61434;BME280;47300;46.192;9.000;2022-12-07T01:07:11;98020.66;;;1.95;100.00
61434;BME280;47300;46.192;9.000;2022-12-07T01:09:36;98022.84;;;1.42;100.00
61434;BME280;47300;46.192;9.000;2022-12-07T01:12:01;98020.75;;;1.64;100.00
61434;BME280;47300;46.192;9.000;2022-12-07T01:14:27;98025.34;;;1.75;100.00
61434;BME280;47300;46.192;9.000;2022-12-07T01:16:53;98020.09;;;1.71;100.00
61434;BME280;47300;46.192;9.000;2022-12-07T01:19:18;98021.91;;;1.76;100.00
61434;BME280;47300;46.192;9.000;2022-12-07T01:21:43;98023.88;;;1.86;100.00
61434;BME280;47300;46.192;9.000;2022-12-07T01:24:10;98018.72;;;1.86;100.00
61434;BME280;47300;46.192;9.000;2022-12-07T01:26:36;98017.16;;;1.93;100.00
61434;BME280;47300;46.192;9.000;2022-12-07T01:29:02;98021.41;;;1.91;100.00
61434;BME280;47300;46.192;9.000;2022-12-07T01:31:28;98031.72;;;1.89;100.00
61434;BME280;47300;46.192;9.000;2022-12-07T01:33:56;98022.09;;;1.83;100.00
61434;BME280;47300;46.192;9.000;2022-12-07T01:36:24;98026.47;;;1.86;100.00
61434;BME280;47300;46.192;9.000;2022-12-07T01:38:52;98023.41;;;1.66;100.00
61434;BME280;47300;46.192;9.000;2022-12-07T01:41:20;98025.28;;;1.38;100.00
61434;BME280;47300;46.192;9.000;2022-12-07T01:46:50;98014.56;;;1.22;100.00
61434;BME280;47300;46.192;9.000;2022-12-07T01:49:21;98020.41;;;1.49;100.00
61434;BME280;47300;46.192;9.000;2022-12-07T01:51:49;98019.09;;;1.66;100.00
61434;BME280;47300;46.192;9.000;2022-12-07T01:54:16;98018.09;;;1.59;100.00
61434;BME280;47300;46.192;9.000;2022-12-07T01:56:47;98018.56;;;1.44;100.00
61434;BME280;47300;46.192;9.000;2022-12-07T01:59:14;98015.91;;;1.41;100.00
61434;BME280;47300;46.192;9.000;2022-12-07T02:01:40;98019.69;;;1.54;100.00
61434;BME280;47300;46.192;9.000;2022-12-07T02:04:06;98016.50;;;1.66;100.00
61434;BME280;47300;46.192;9.000;2022-12-07T02:06:31;98015.50;;;1.61;100.00
61434;BME280;47300;46.192;9.000;2022-12-07T02:08:56;98012.28;;;1.35;100.00
61434;BME280;47300;46.192;9.000;2022-12-07T02:11:22;98004.72;;;1.09;100.00
61434;BME280;47300;46.192;9.000;2022-12-07T02:13:48;98008.72;;;1.29;100.00
61434;BME280;47300;46.192;9.000;2022-12-07T02:16:43;98006.03;;;1.26;100.00
61434;BME280;47300;46.192;9.000;2022-12-07T02:27:46;98000.66;;;1.19;100.00
61434;BME280;47300;46.192;9.000;2022-12-07T02:30:15;98004.38;;;1.28;100.00
61434;BME280;47300;46.192;9.000;2022-12-07T02:32:51;97998.16;;;1.22;100.00
61434;BME280;47300;46.192;9.000;2022-12-07T02:41:10;97995.81;;;1.66;100.00
61434;BME280;47300;46.192;9.000;2022-12-07T02:43:46;97989.84;;;1.69;100.00
61434;BME280;47300;46.192;9.000;2022-12-07T02:46:17;97990.53;;;1.62;100.00
61434;BME280;47300;46.192;9.000;2022-12-07T02:48:45;97979.03;;;1.50;100.00
61434;BME280;47300;46.192;9.000;2022-12-07T02:51:11;97983.00;;;1.36;100.00
61434;BME280;47300;46.192;9.000;2022-12-07T02:53:39;97977.91;;;1.39;100.00
61434;BME280;47300;46.192;9.000;2022-12-07T02:58:50;97976.28;;;1.42;100.00
61434;BME280;47300;46.192;9.000;2022-12-07T03:06:52;97978.31;;;1.56;100.00
61434;BME280;47300;46.192;9.000;2022-12-07T03:09:40;97974.97;;;1.60;100.00
61434;BME280;47300;46.192;9.000;2022-12-07T03:12:23;97969.72;;;1.57;100.00
61434;BME280;47300;46.192;9.000;2022-12-07T03:14:58;97978.31;;;1.56;100.00
61434;BME280;47300;46.192;9.000;2022-12-07T03:17:27;97968.19;;;1.30;100.00
61434;BME280;47300;46.192;9.000;2022-12-07T03:19:58;97970.88;;;1.33;100.00
61434;BME280;47300;46.192;9.000;2022-12-07T03:22:29;97971.13;;;1.44;100.00
61434;BME280;47300;46.192;9.000;2022-12-07T03:24:59;97972.88;;;1.45;100.00
61434;BME280;47300;46.192;9.000;2022-12-07T03:27:34;97965.38;;;1.56;100.00
61434;BME280;47300;46.192;9.000;2022-12-07T03:30:04;97964.94;;;1.74;100.00
61434;BME280;47300;46.192;9.000;2022-12-07T03:32:37;97968.50;;;1.78;100.00
61434;BME280;47300;46.192;9.000;2022-12-07T03:35:12;97956.59;;;1.86;100.00
61434;BME280;47300;46.192;9.000;2022-12-07T03:38:15;97956.06;;;1.63;100.00
61434;BME280;47300;46.192;9.000;2022-12-07T03:41:06;97956.00;;;1.59;100.00
61434;BME280;47300;46.192;9.000;2022-12-07T03:43:36;97960.59;;;1.03;100.00
61434;BME280;47300;46.192;9.000;2022-12-07T03:46:27;97966.50;;;1.32;100.00
61434;BME280;47300;46.192;9.000;2022-12-07T03:49:11;97963.34;;;1.42;100.00
61434;BME280;47300;46.192;9.000;2022-12-07T03:51:56;97961.47;;;1.37;100.00
61434;BME280;47300;46.192;9.000;2022-12-07T03:54:29;97951.41;;;1.49;100.00
61434;BME280;47300;46.192;9.000;2022-12-07T03:56:58;97947.47;;;1.64;100.00
61434;BME280;47300;46.192;9.000;2022-12-07T03:59:24;97946.63;;;1.65;100.00
61434;BME280;47300;46.192;9.000;2022-12-07T04:02:02;97938.78;;;1.62;100.00
61434;BME280;47300;46.192;9.000;2022-12-07T04:04:28;97946.56;;;1.63;100.00
61434;BME280;47300;46.192;9.000;2022-12-07T04:06:54;97940.28;;;1.52;100.00
61434;BME280;47300;46.192;9.000;2022-12-07T04:09:19;97943.78;;;1.54;100.00
61434;BME280;47300;46.192;9.000;2022-12-07T04:11:45;97931.25;;;1.34;100.00
61434;BME280;47300;46.192;9.000;2022-12-07T04:14:11;97935.69;;;1.40;100.00
61434;BME280;47300;46.192;9.000;2022-12-07T04:19:11;97921.97;;;1.42;100.00
61434;BME280;47300;46.192;9.000;2022-12-07T04:21:36;97925.47;;;1.46;100.00
61434;BME280;47300;46.192;9.000;2022-12-07T04:24:02;97913.44;;;1.47;100.00
61434;BME280;47300;46.192;9.000;2022-12-07T04:26:27;97915.31;;;1.52;100.00
61434;BME280;47300;46.192;9.000;2022-12-07T04:28:53;97923.34;;;1.65;100.00
61434;BME280;47300;46.192;9.000;2022-12-07T04:31:18;97921.28;;;1.51;100.00
61434;BME280;47300;46.192;9.000;2022-12-07T04:33:43;97918.59;;;1.47;100.00
61434;BME280;47300;46.192;9.000;2022-12-07T04:36:09;97921.13;;;1.45;100.00
61434;BME280;47300;46.192;9.000;2022-12-07T04:38:34;97918.47;;;1.40;100.00
61434;BME280;47300;46.192;9.000;2022-12-07T04:41:05;97919.94;;;1.30;100.00
61434;BME280;47300;46.192;9.000;2022-12-07T04:43:30;97926.16;;;1.39;100.00
61434;BME280;47300;46.192;9.000;2022-12-07T04:45:56;97920.97;;;1.02;100.00
61434;BME280;47300;46.192;9.000;2022-12-07T04:48:21;97919.69;;;1.20;100.00
61434;BME280;47300;46.192;9.000;2022-12-07T04:50:48;97915.81;;;1.37;100.00
61434;BME280;47300;46.192;9.000;2022-12-07T04:53:14;97921.13;;;1.45;100.00
61434;BME280;47300;46.192;9.000;2022-12-07T04:55:39;97926.31;;;1.10;100.00
61434;BME280;47300;46.192;9.000;2022-12-07T04:58:05;97928.66;;;0.99;100.00
61434;BME280;47300;46.192;9.000;2022-12-07T05:00:30;97925.56;;;0.80;100.00
61434;BME280;47300;46.192;9.000;2022-12-07T05:02:55;97928.69;;;1.00;100.00
61434;BME280;47300;46.192;9.000;2022-12-07T05:05:21;97926.06;;;0.99;100.00
61434;BME280;47300;46.192;9.000;2022-12-07T05:07:46;97923.06;;;0.83;100.00
61434;BME280;47300;46.192;9.000;2022-12-07T05:10:11;97919.25;;;1.03;100.00
61434;BME280;47300;46.192;9.000;2022-12-07T05:12:37;97924.97;;;1.24;100.00
61434;BME280;47300;46.192;9.000;2022-12-07T05:15:02;97927.81;;;1.35;100.00
61434;BME280;47300;46.192;9.000;2022-12-07T05:17:27;97914.84;;;0.98;100.00
61434;BME280;47300;46.192;9.000;2022-12-07T05:19:53;97914.50;;;1.20;100.00
61434;BME280;47300;46.192;9.000;2022-12-07T05:22:18;97918.97;;;1.27;100.00
61434;BME280;47300;46.192;9.000;2022-12-07T05:24:43;97914.69;;;1.27;100.00
61434;BME280;47300;46.192;9.000;2022-12-07T05:27:09;97918.56;;;1.45;100.00
61434;BME280;47300;46.192;9.000;2022-12-07T05:29:34;97923.06;;;1.52;100.00
61434;BME280;47300;46.192;9.000;2022-12-07T05:31:59;97928.41;;;1.23;100.00
61434;BME280;47300;46.192;9.000;2022-12-07T05:34:25;97922.19;;;1.17;100.00
61434;BME280;47300;46.192;9.000;2022-12-07T05:36:50;97926.53;;;1.18;100.00
61434;BME280;47300;46.192;9.000;2022-12-07T05:39:15;97920.44;;;1.15;100.00
61434;BME280;47300;46.192;9.000;2022-12-07T05:41:41;97924.09;;;1.24;100.00
61434;BME280;47300;46.192;9.000;2022-12-07T05:44:25;97918.47;;;1.05;100.00
61434;BME280;47300;46.192;9.000;2022-12-07T05:46:50;97917.97;;;1.20;100.00
61434;BME280;47300;46.192;9.000;2022-12-07T05:49:16;97918.84;;;1.21;100.00
61434;BME280;47300;46.192;9.000;2022-12-07T05:51:41;97915.56;;;1.28;100.00
61434;BME280;47300;46.192;9.000;2022-12-07T05:54:07;97927.19;;;1.46;100.00
61434;BME280;47300;46.192;9.000;2022-12-07T05:56:32;97920.97;;;1.37;100.00
61434;BME280;47300;46.192;9.000;2022-12-07T05:58:57;97925.47;;;1.44;100.00
61434;BME280;47300;46.192;9.000;2022-12-07T06:01:41;97934.75;;;1.36;100.00
61434;BME280;47300;46.192;9.000;2022-12-07T06:04:07;97936.25;;;1.28;100.00
61434;BME280;47300;46.192;9.000;2022-12-07T06:06:32;97921.66;;;1.30;100.00
61434;BME280;47300;46.192;9.000;2022-12-07T06:08:58;97924.34;;;1.33;100.00
61434;BME280;47300;46.192;9.000;2022-12-07T06:11:23;97934.81;;;1.39;100.00
61434;BME280;47300;46.192;9.000;2022-12-07T06:14:07;97938.75;;;1.23;100.00
61434;BME280;47300;46.192;9.000;2022-12-07T06:16:33;97934.56;;;1.28;100.00
61434;BME280;47300;46.192;9.000;2022-12-07T06:18:58;97928.81;;;1.42;100.00
61434;BME280;47300;46.192;9.000;2022-12-07T06:21:23;97930.91;;;1.57;100.00
61434;BME280;47300;46.192;9.000;2022-12-07T06:23:50;97940.41;;;1.56;100.00
61434;BME280;47300;46.192;9.000;2022-12-07T06:26:16;97942.94;;;1.55;100.00
61434;BME280;47300;46.192;9.000;2022-12-07T06:28:41;97938.34;;;1.43;100.00
61434;BME280;47300;46.192;9.000;2022-12-07T06:31:07;97934.22;;;1.51;100.00
61434;BME280;47300;46.192;9.000;2022-12-07T06:33:32;97935.69;;;1.40;100.00
61434;BME280;47300;46.192;9.000;2022-12-07T06:35:58;97938.13;;;1.34;100.00
61434;BME280;47300;46.192;9.000;2022-12-07T06:38:23;97940.00;;;1.39;100.00
61434;BME280;47300;46.192;9.000;2022-12-07T06:40:48;97941.41;;;1.26;100.00
61434;BME280;47300;46.192;9.000;2022-12-07T06:43:14;97943.16;;;1.27;100.00
61434;BME280;47300;46.192;9.000;2022-12-07T06:45:40;97937.00;;;1.24;100.00
61434;BME280;47300;46.192;9.000;2022-12-07T06:48:06;97939.66;;;1.27;100.00
61434;BME280;47300;46.192;9.000;2022-12-07T06:50:31;97945.69;;;0.92;100.00
61434;BME280;47300;46.192;9.000;2022-12-07T06:52:56;97951.72;;;0.91;100.00
61434;BME280;47300;46.192;9.000;2022-12-07T06:55:22;97943.66;;;0.80;100.00
61434;BME280;47300;46.192;9.000;2022-12-07T06:57:47;97941.38;;;0.91;100.00
61434;BME280;47300;46.192;9.000;2022-12-07T07:00:14;97944.75;;;0.89;100.00
61434;BME280;47300;46.192;9.000;2022-12-07T07:02:39;97937.63;;;0.80;100.00
61434;BME280;47300;46.192;9.000;2022-12-07T07:05:05;97945.22;;;1.07;100.00
61434;BME280;47300;46.192;9.000;2022-12-07T07:07:30;97951.19;;;1.05;100.00
61434;BME280;47300;46.192;9.000;2022-12-07T07:09:55;97947.91;;;1.10;100.00
61434;BME280;47300;46.192;9.000;2022-12-07T07:12:20;97946.44;;;1.22;100.00
61434;BME280;47300;46.192;9.000;2022-12-07T07:14:46;97949.09;;;1.23;100.00
61434;BME280;47300;46.192;9.000;2022-12-07T07:17:12;97954.09;;;1.17;100.00
61434;BME280;47300;46.192;9.000;2022-12-07T07:19:37;97957.69;;;1.24;100.00
61434;BME280;47300;46.192;9.000;2022-12-07T07:22:03;97956.16;;;1.32;100.00
61434;BME280;47300;46.192;9.000;2022-12-07T07:24:29;97965.81;;;1.38;100.00
61434;BME280;47300;46.192;9.000;2022-12-07T07:26:54;97963.69;;;1.21;100.00
61434;BME280;47300;46.192;9.000;2022-12-07T07:29:19;97960.09;;;0.82;100.00
61434;BME280;47300;46.192;9.000;2022-12-07T07:31:45;97963.63;;;1.20;100.00
61434;BME280;47300;46.192;9.000;2022-12-07T07:34:10;97959.28;;;1.19;100.00
61434;BME280;47300;46.192;9.000;2022-12-07T07:36:35;97966.97;;;1.15;100.00
61434;BME280;47300;46.192;9.000;2022-12-07T07:39:01;97970.31;;;1.11;100.00
61434;BME280;47300;46.192;9.000;2022-12-07T07:41:26;97962.34;;;1.37;100.00
61434;BME280;47300;46.192;9.000;2022-12-07T07:43:51;97961.63;;;1.43;100.00
61434;BME280;47300;46.192;9.000;2022-12-07T07:46:17;97966.22;;;1.55;100.00
61434;BME280;47300;46.192;9.000;2022-12-07T07:48:42;97953.63;;;1.34;100.00
61434;BME280;47300;46.192;9.000;2022-12-07T07:51:08;97962.00;;;1.23;100.00
61434;BME280;47300;46.192;9.000;2022-12-07T07:53:33;97957.50;;;1.51;100.00
61434;BME280;47300;46.192;9.000;2022-12-07T07:55:59;97960.00;;;1.48;100.00
61434;BME280;47300;46.192;9.000;2022-12-07T07:58:24;97960.00;;;1.48;100.00
61434;BME280;47300;46.192;9.000;2022-12-07T08:00:50;97962.56;;;1.47;100.00
61434;BME280;47300;46.192;9.000;2022-12-07T08:03:16;97965.50;;;1.25;100.00
61434;BME280;47300;46.192;9.000;2022-12-07T08:05:41;97963.47;;;1.13;100.00
61434;BME280;47300;46.192;9.000;2022-12-07T08:08:06;97959.16;;;1.12;100.00
61434;BME280;47300;46.192;9.000;2022-12-07T08:10:32;97962.16;;;1.29;100.00
61434;BME280;47300;46.192;9.000;2022-12-07T08:12:58;97972.63;;;1.34;100.00
61434;BME280;47300;46.192;9.000;2022-12-07T08:15:36;97973.25;;;0.92;100.00
61434;BME280;47300;46.192;9.000;2022-12-07T08:18:02;97964.38;;;0.50;100.00
61434;BME280;47300;46.192;9.000;2022-12-07T08:20:30;97960.69;;;0.74;100.00
61434;BME280;47300;46.192;9.000;2022-12-07T08:22:55;97969.97;;;0.97;100.00
61434;BME280;47300;46.192;9.000;2022-12-07T08:25:21;97965.28;;;1.16;100.00
61434;BME280;47300;46.192;9.000;2022-12-07T08:27:47;97969.88;;;1.28;100.00
61434;BME280;47300;46.192;9.000;2022-12-07T08:30:13;97971.56;;;0.94;100.00
61434;BME280;47300;46.192;9.000;2022-12-07T08:32:38;97971.56;;;0.92;100.00
61434;BME280;47300;46.192;9.000;2022-12-07T08:35:04;97973.59;;;1.04;100.00
61434;BME280;47300;46.192;9.000;2022-12-07T08:37:31;97976.84;;;1.30;100.00
61434;BME280;47300;46.192;9.000;2022-12-07T08:39:56;97982.50;;;1.15;100.00
61434;BME280;47300;46.192;9.000;2022-12-07T08:42:21;97987.56;;;1.46;100.00
61434;BME280;47300;46.192;9.000;2022-12-07T08:44:48;97976.00;;;2.07;100.00
61434;BME280;47300;46.192;9.000;2022-12-07T08:47:13;97981.47;;;2.60;100.00
61434;BME280;47300;46.192;9.000;2022-12-07T08:49:41;97985.78;;;2.60;100.00
61434;BME280;47300;46.192;9.000;2022-12-07T08:52:09;97987.06;;;2.82;100.00
61434;BME280;47300;46.192;9.000;2022-12-07T08:54:36;97989.13;;;2.99;100.00
61434;BME280;47300;46.192;9.000;2022-12-07T08:57:04;97979.22;;;3.25;100.00
61434;BME280;47300;46.192;9.000;2022-12-07T08:59:33;97984.22;;;3.67;100.00
61434;BME280;47300;46.192;9.000;2022-12-07T09:01:59;97975.63;;;4.28;100.00
61434;BME280;47300;46.192;9.000;2022-12-07T09:04:24;97976.41;;;4.22;100.00
61434;BME280;47300;46.192;9.000;2022-12-07T09:06:50;97978.09;;;4.20;98.77
61434;BME280;47300;46.192;9.000;2022-12-07T09:09:15;97970.41;;;4.29;100.00
61434;BME280;47300;46.192;9.000;2022-12-07T09:11:40;97977.00;;;4.70;97.49
61434;BME280;47300;46.192;9.000;2022-12-07T09:14:06;97978.63;;;4.60;94.56
61434;BME280;47300;46.192;9.000;2022-12-07T09:16:31;97981.63;;;4.25;96.69
61434;BME280;47300;46.192;9.000;2022-12-07T09:18:57;97970.69;;;4.49;97.12
61434;BME280;47300;46.192;9.000;2022-12-07T09:21:22;97966.75;;;4.13;97.59
61434;BME280;47300;46.192;9.000;2022-12-07T09:23:47;97961.38;;;3.99;98.32
61434;BME280;47300;46.192;9.000;2022-12-07T09:26:13;97957.81;;;3.94;100.00
61434;BME280;47300;46.192;9.000;2022-12-07T09:28:38;97960.19;;;4.40;96.78
61434;BME280;47300;46.192;9.000;2022-12-07T09:31:05;97955.25;;;4.62;95.03
61434;BME280;47300;46.192;9.000;2022-12-07T09:33:31;97951.78;;;4.64;94.28
61434;BME280;47300;46.192;9.000;2022-12-07T09:35:57;97946.13;;;4.98;92.50
61434;BME280;47300;46.192;9.000;2022-12-07T09:38:22;97945.94;;;4.81;92.76
61434;BME280;47300;46.192;9.000;2022-12-07T09:40:48;97946.75;;;4.77;95.01
61434;BME280;47300;46.192;9.000;2022-12-07T09:43:16;97950.50;;;5.04;94.13
61434;BME280;47300;46.192;9.000;2022-12-07T09:45:44;97952.03;;;4.83;94.37
61434;BME280;47300;46.192;9.000;2022-12-07T09:48:17;97949.34;;;4.77;94.63
61434;BME280;47300;46.192;9.000;2022-12-07T09:50:43;97943.53;;;5.01;92.52
61434;BME280;47300;46.192;9.000;2022-12-07T09:53:14;97952.66;;;5.53;90.79
61434;BME280;47300;46.192;9.000;2022-12-07T09:55:42;97941.66;;;5.91;91.00
61434;BME280;47300;46.192;9.000;2022-12-07T09:58:19;97951.81;;;5.54;90.36
61434;BME280;47300;46.192;9.000;2022-12-07T10:00:45;97937.41;;;6.03;89.48
61434;BME280;47300;46.192;9.000;2022-12-07T10:03:11;97938.47;;;6.37;87.96
61434;BME280;47300;46.192;9.000;2022-12-07T10:05:41;97934.22;;;6.57;86.63
61434;BME280;47300;46.192;9.000;2022-12-07T10:08:10;97927.31;;;6.66;86.65
61434;BME280;47300;46.192;9.000;2022-12-07T10:10:36;97926.94;;;5.98;86.33
61434;BME280;47300;46.192;9.000;2022-12-07T10:23:26;97915.16;;;6.87;83.86
61434;BME280;47300;46.192;9.000;2022-12-07T10:25:51;97904.75;;;7.14;80.77
61434;BME280;47300;46.192;9.000;2022-12-07T10:28:20;97898.69;;;7.46;78.70
61434;BME280;47300;46.192;9.000;2022-12-07T10:31:14;97896.97;;;7.46;79.65
61434;BME280;47300;46.192;9.000;2022-12-07T10:33:58;97894.34;;;7.56;77.24
61434;BME280;47300;46.192;9.000;2022-12-07T10:36:38;97901.31;;;7.47;78.64
61434;BME280;47300;46.192;9.000;2022-12-07T10:39:10;97888.22;;;7.77;78.88
61434;BME280;47300;46.192;9.000;2022-12-07T10:41:56;97881.22;;;7.87;76.81
61434;BME280;47300;46.192;9.000;2022-12-07T10:44:26;97893.34;;;8.09;76.33
61434;BME280;47300;46.192;9.000;2022-12-07T10:50:07;97883.78;;;8.08;75.48
61434;BME280;47300;46.192;9.000;2022-12-07T10:55:48;97878.59;;;7.97;75.61
61434;BME280;47300;46.192;9.000;2022-12-07T11:01:24;97871.63;;;7.96;75.77
61434;BME280;47300;46.192;9.000;2022-12-07T11:06:47;97860.22;;;8.24;77.89
61434;BME280;47300;46.192;9.000;2022-12-07T11:11:58;97851.47;;;8.28;77.03
61434;BME280;47300;46.192;9.000;2022-12-07T11:14:31;97844.41;;;8.53;75.22
61434;BME280;47300;46.192;9.000;2022-12-07T11:17:07;97847.78;;;8.68;73.54
61434;BME280;47300;46.192;9.000;2022-12-07T11:20:05;97839.00;;;8.81;71.03
61434;BME280;47300;46.192;9.000;2022-12-07T11:25:52;97831.22;;;8.66;71.41
61434;BME280;47300;46.192;9.000;2022-12-07T11:31:28;97823.50;;;8.50;72.46
61434;BME280;47300;46.192;9.000;2022-12-07T11:36:45;97818.78;;;8.99;69.28
61434;BME280;47300;46.192;9.000;2022-12-07T11:41:48;97826.00;;;8.72;74.07
61434;BME280;47300;46.192;9.000;2022-12-07T11:44:31;97818.94;;;8.83;71.84
61434;BME280;47300;46.192;9.000;2022-12-07T11:47:05;97813.63;;;8.90;69.75
61434;BME280;47300;46.192;9.000;2022-12-07T11:52:16;97794.50;;;8.85;70.44
61434;BME280;47300;46.192;9.000;2022-12-07T11:54:46;97801.41;;;8.93;71.22
61434;BME280;47300;46.192;9.000;2022-12-07T11:57:19;97807.47;;;8.98;69.00
61434;BME280;47300;46.192;9.000;2022-12-07T11:59:50;97799.66;;;8.95;69.06
61434;BME280;47300;46.192;9.000;2022-12-07T12:02:24;97802.13;;;9.11;69.22
61434;BME280;47300;46.192;9.000;2022-12-07T12:04:56;97804.16;;;8.75;68.29
61434;BME280;47300;46.192;9.000;2022-12-07T12:07:26;97812.75;;;8.95;68.25
61434;BME280;47300;46.192;9.000;2022-12-07T12:10:03;97799.66;;;8.95;67.81
61434;BME280;47300;46.192;9.000;2022-12-07T12:20:26;97802.69;;;9.44;68.68
61434;BME280;47300;46.192;9.000;2022-12-07T12:22:59;97804.56;;;9.31;68.86
61434;BME280;47300;46.192;9.000;2022-12-07T12:25:29;97799.59;;;9.00;68.57
61434;BME280;47300;46.192;9.000;2022-12-07T12:27:58;97803.94;;;9.01;68.73
61434;BME280;47300;46.192;9.000;2022-12-07T12:30:38;97796.97;;;9.00;70.41
61434;BME280;47300;46.192;9.000;2022-12-07T12:35:39;97793.75;;;9.64;72.15
61434;BME280;47300;46.192;9.000;2022-12-07T12:38:33;97797.56;;;9.33;70.12
61434;BME280;47300;46.192;9.000;2022-12-07T12:41:00;97789.53;;;9.50;68.68
61434;BME280;47300;46.192;9.000;2022-12-07T12:43:46;97785.75;;;9.78;69.87
61434;BME280;47300;46.192;9.000;2022-12-07T12:49:08;97793.63;;;9.76;68.33
61434;BME280;47300;46.192;9.000;2022-12-07T12:51:41;97796.78;;;10.05;68.18
61434;BME280;47300;46.192;9.000;2022-12-07T12:54:34;97783.69;;;10.03;65.68
61434;BME280;47300;46.192;9.000;2022-12-07T12:57:12;97788.16;;;9.95;66.63
61434;BME280;47300;46.192;9.000;2022-12-07T13:04:56;97782.22;;;9.79;66.41
61434;BME280;47300;46.192;9.000;2022-12-07T13:15:36;97769.81;;;9.96;65.04
61434;BME280;47300;46.192;9.000;2022-12-07T13:18:14;97764.53;;;9.98;65.24
61434;BME280;47300;46.192;9.000;2022-12-07T13:26:18;97749.56;;;10.08;62.48
61434;BME280;47300;46.192;9.000;2022-12-07T13:31:19;97749.91;;;10.47;62.19
61434;BME280;47300;46.192;9.000;2022-12-07T13:33:46;97745.41;;;10.55;62.00
61434;BME280;47300;46.192;9.000;2022-12-07T13:36:18;97747.50;;;10.30;61.63
61434;BME280;47300;46.192;9.000;2022-12-07T13:38:49;97736.03;;;10.37;62.48
61434;BME280;47300;46.192;9.000;2022-12-07T13:41:17;97738.69;;;10.34;62.74
61434;BME280;47300;46.192;9.000;2022-12-07T13:43:53;97743.63;;;9.93;63.04
61434;BME280;47300;46.192;9.000;2022-12-07T13:46:25;97742.53;;;10.11;65.50
61434;BME280;47300;46.192;9.000;2022-12-07T13:48:53;97737.38;;;10.04;62.69
61434;BME280;47300;46.192;9.000;2022-12-07T13:51:34;97738.97;;;10.16;64.18
61434;BME280;47300;46.192;9.000;2022-12-07T13:54:08;97739.72;;;10.22;64.20
61434;BME280;47300;46.192;9.000;2022-12-07T13:56:35;97738.78;;;10.30;62.02
61434;BME280;47300;46.192;9.000;2022-12-07T13:59:01;97737.09;;;10.24;63.13
61434;BME280;47300;46.192;9.000;2022-12-07T14:01:27;97739.06;;;10.08;62.43
61434;BME280;47300;46.192;9.000;2022-12-07T14:03:53;97745.91;;;10.18;63.26
61434;BME280;47300;46.192;9.000;2022-12-07T14:06:26;97742.34;;;10.24;62.85
61434;BME280;47300;46.192;9.000;2022-12-07T14:09:20;97736.06;;;10.36;62.35
61434;BME280;47300;46.192;9.000;2022-12-07T14:11:47;97741.31;;;10.34;60.54
61434;BME280;47300;46.192;9.000;2022-12-07T14:14:18;97744.06;;;10.26;62.06
61434;BME280;47300;46.192;9.000;2022-12-07T14:16:59;97743.50;;;10.03;60.57
61434;BME280;47300;46.192;9.000;2022-12-07T14:22:37;97745.66;;;9.69;65.32
61434;BME280;47300;46.192;9.000;2022-12-07T14:25:18;97754.16;;;9.90;65.00
61434;BME280;47300;46.192;9.000;2022-12-07T14:30:18;97751.28;;;10.09;64.12
61434;BME280;47300;46.192;9.000;2022-12-07T14:32:44;97757.78;;;9.78;61.60
61434;BME280;47300;46.192;9.000;2022-12-07T14:35:15;97765.53;;;9.88;62.83
61434;BME280;47300;46.192;9.000;2022-12-07T14:37:42;97753.13;;;10.02;62.86
61434;BME280;47300;46.192;9.000;2022-12-07T14:40:13;97753.03;;;10.10;63.04
61434;BME280;47300;46.192;9.000;2022-12-07T14:42:39;97761.00;;;9.22;66.62
61434;BME280;47300;46.192;9.000;2022-12-07T14:45:05;97762.78;;;9.17;67.29
61434;BME280;47300;46.192;9.000;2022-12-07T14:47:31;97760.66;;;8.60;68.80
61434;BME280;47300;46.192;9.000;2022-12-07T14:49:56;97765.25;;;8.17;69.73
61434;BME280;47300;46.192;9.000;2022-12-07T14:52:28;97766.38;;;7.52;74.69
61434;BME280;47300;46.192;9.000;2022-12-07T14:54:55;97769.91;;;7.23;76.97
61434;BME280;47300;46.192;9.000;2022-12-07T14:57:20;97765.50;;;7.46;77.54
61434;BME280;47300;46.192;9.000;2022-12-07T14:59:45;97760.28;;;7.46;79.16
61434;BME280;47300;46.192;9.000;2022-12-07T15:02:13;97765.53;;;7.41;78.40